Main page
METAR-TAF:

METAR-TAF

Airports :

Blackpool Airport

Blackpool, England

latitude: 53-46N, longitude: 003-02W, elevation: 10 m

Current weather observation

The report was made 1 hour and 58 minutes ago, at 20:50 UTC
Wind 9 kt from the Northeast
Temperature 6°C
Humidity 81%
Pressure 1011 hPa
Visibility 10 km or more
Few clouds at a height of 1900 ft
Broken clouds at a height of 3300 ft

METAR: EGNH 202050Z 05009KT 9999 FEW019 BKN033 06/03 Q1011

Time: 22:48 (22:48 UTC)

Forecast

The report was made 5 hours and 48 minutes ago, at 17:00 UTC
Forecast valid from 20 at 18 UTC to 20 at 21 UTC
Wind 11 kt from the Northeast
Visibility 10 km or more
Few clouds at a height of 1000 ft
Scattered clouds at a height of 2500 ft
Probability 30% :
Temporary
from 20 at 18 UTC to 20 at 21 UTC
Wind 15 kt from the East/Northeast with gusts up to 27 kt
Visibility: 7000 m
Broken clouds at a height of 1200 ft
rain showers

TAF: EGNH 201700Z 2018/2021 05011KT 9999 FEW010 SCT025 PROB30 TEMPO 2018/2021 06015G27KT 7000 SHRA BKN012

Weather observations and forecasts of more than 4000 airports (METAR and TAF reports).

The available stations are represented by yellow and red dots on the map.

Hover mouse over dot to see the name of the station.

Then click to see weather observations and forecasts.

To change the map : click on the green buttons with a black cross to zoom in, on the green button with a dash to zoom out, or on the green arrows for adjacent maps.


METAR-TAF: